Etusivu
METAR-TAF:

METAR-TAF

Lentoasemat :

Kangirsuk, Quebec, Kanada

Leveyspiiri: 60-01N, Pituuspiiri: 070-00W, korkeus merenpinnasta: 117 m

Tämänhetkinen sää

Tämä raportti tehtiin 1 tunti ja 1 minuuttia sitten, kello 18.00 UTC
Tuuli 8 kn etelästä/lounaasta
Lämpötila 22°C
Kosteus 38%
Ilmanpaine 1011 hPa
Näkyvyys: 24.1 km
Hajanaisia pilviä 13000 ft:n korkeudessa
Pilvistä 18000 ft:n korkeudessa

METAR: CYAS 151800Z 21008KT 15SM SCT130 OVC180 22/07 A2986 RMK AC3AS5 SLP118 DENSITY ALT 1400FT

Aika: 15:01 (19:01 UTC)

Sääennuste

Tämä raportti tehtiin 3 tuntia ja 54 minuuttia sitten, kello 15.07 UTC
Ennuste voimassa 15. päivästä klo 15 UTC - 15. päivään klo 21 UTC
Tuuli 5 kn lounaasta
Näkyvyys: 10 km
Hajonneita pilviä 12000 ft:n korkeudessa
Pilvistä 20000 ft:n korkeudessa
Tulossa
15. päivästä klo 16 UTC - 15. päivään klo 18 UTC
Tuuli 12 kn etelästä/lounaasta

TAF: CYAS 151507Z 1515/1521 23005KT P6SM BKN120 OVC200 BECMG 1516/1518 21012KT RMK NXT FCST WILL BE ISSUED AT 161345Z

Säähavainnot ja -ennusteet yli 4000 lentoasemalta (METAR- ja TAF-raportit).

Käytössä olevat sääasemat on merkitty karttaan keltaisilla ja punaisilla pisteillä.

Aseta hiiri pisteen päälle nähdäksesi sääaseman nimen.

Klikkaa sitten nähdäksesi säähavainnot ja -ennusteet.

Kartan vaihtaminen: klikkaa mustalla rastilla varustettuja vihreitä pisteitä, niin voit zoomata sisään; viivalla varustettua vihreää pistettä, niin voit zoomata ulos tai vihreitä nuolia, niin pääset viereisille kartoille.


METAR-TAF: